sensor_id;sensor_type;location;lat;lon;timestamp;temperature;humidity
18317;DHT22;9284;52.298;21.164;2022-12-07T04:09:01;1.90;99.90
18317;DHT22;9284;52.298;21.164;2022-12-07T04:11:29;1.90;99.90
18317;DHT22;9284;52.298;21.164;2022-12-07T04:13:57;1.80;99.90
18317;DHT22;9284;52.298;21.164;2022-12-07T04:16:42;1.80;99.90
18317;DHT22;9284;52.298;21.164;2022-12-07T04:19:11;1.70;99.90
18317;DHT22;9284;52.298;21.164;2022-12-07T04:21:39;1.80;99.90
18317;DHT22;9284;52.298;21.164;2022-12-07T04:24:09;1.80;99.90
18317;DHT22;9284;52.298;21.164;2022-12-07T04:26:37;2.00;99.90
18317;DHT22;9284;52.298;21.164;2022-12-07T04:29:05;1.80;99.90
18317;DHT22;9284;52.298;21.164;2022-12-07T04:31:34;1.80;99.90
18317;DHT22;9284;52.298;21.164;2022-12-07T04:34:03;1.80;99.90
18317;DHT22;9284;52.298;21.164;2022-12-07T04:36:32;1.90;99.90
18317;DHT22;9284;52.298;21.164;2022-12-07T04:39:00;1.90;99.90
18317;DHT22;9284;52.298;21.164;2022-12-07T04:41:30;1.80;99.90
18317;DHT22;9284;52.298;21.164;2022-12-07T04:44:00;1.80;99.90
18317;DHT22;9284;52.298;21.164;2022-12-07T04:46:30;1.80;99.90
18317;DHT22;9284;52.298;21.164;2022-12-07T04:48:59;1.80;99.90
18317;DHT22;9284;52.298;21.164;2022-12-07T04:51:28;1.80;99.90
18317;DHT22;9284;52.298;21.164;2022-12-07T04:53:57;1.80;99.90
18317;DHT22;9284;52.298;21.164;2022-12-07T04:56:25;1.90;99.90
18317;DHT22;9284;52.298;21.164;2022-12-07T04:58:55;1.80;99.90
18317;DHT22;9284;52.298;21.164;2022-12-07T05:01:23;1.80;99.90
18317;DHT22;9284;52.298;21.164;2022-12-07T05:03:52;1.90;99.90
18317;DHT22;9284;52.298;21.164;2022-12-07T05:06:20;1.80;99.90
18317;DHT22;9284;52.298;21.164;2022-12-07T05:08:48;1.80;99.90
18317;DHT22;9284;52.298;21.164;2022-12-07T05:11:16;1.80;99.90
18317;DHT22;9284;52.298;21.164;2022-12-07T05:14:00;1.70;99.90
18317;DHT22;9284;52.298;21.164;2022-12-07T05:16:29;1.80;99.90
18317;DHT22;9284;52.298;21.164;2022-12-07T05:18:57;1.80;99.90
18317;DHT22;9284;52.298;21.164;2022-12-07T05:21:25;1.80;99.90
18317;DHT22;9284;52.298;21.164;2022-12-07T05:23:54;1.80;99.90
18317;DHT22;9284;52.298;21.164;2022-12-07T05:26:22;1.80;99.90
18317;DHT22;9284;52.298;21.164;2022-12-07T05:28:51;1.80;99.90
18317;DHT22;9284;52.298;21.164;2022-12-07T05:31:21;1.80;99.90
18317;DHT22;9284;52.298;21.164;2022-12-07T05:33:50;1.80;99.90
18317;DHT22;9284;52.298;21.164;2022-12-07T05:36:18;1.70;99.90
18317;DHT22;9284;52.298;21.164;2022-12-07T05:38:46;1.70;99.90
18317;DHT22;9284;52.298;21.164;2022-12-07T05:41:16;1.70;99.90
18317;DHT22;9284;52.298;21.164;2022-12-07T05:44:01;1.60;99.90
18317;DHT22;9284;52.298;21.164;2022-12-07T05:46:32;1.60;99.90
18317;DHT22;9284;52.298;21.164;2022-12-07T05:49:00;1.70;99.90
18317;DHT22;9284;52.298;21.164;2022-12-07T05:51:29;1.60;99.90
18317;DHT22;9284;52.298;21.164;2022-12-07T05:53:57;1.60;99.90
18317;DHT22;9284;52.298;21.164;2022-12-07T05:56:25;1.50;99.90
18317;DHT22;9284;52.298;21.164;2022-12-07T05:58:54;1.60;99.90
18317;DHT22;9284;52.298;21.164;2022-12-07T06:01:40;1.50;99.90
18317;DHT22;9284;52.298;21.164;2022-12-07T06:04:09;1.50;99.90
18317;DHT22;9284;52.298;21.164;2022-12-07T06:06:37;1.40;99.90
18317;DHT22;9284;52.298;21.164;2022-12-07T06:09:05;1.40;99.90
18317;DHT22;9284;52.298;21.164;2022-12-07T06:11:34;1.40;99.90
18317;DHT22;9284;52.298;21.164;2022-12-07T06:14:19;1.40;99.90
18317;DHT22;9284;52.298;21.164;2022-12-07T06:16:49;1.40;99.90
18317;DHT22;9284;52.298;21.164;2022-12-07T06:19:18;1.30;99.90
18317;DHT22;9284;52.298;21.164;2022-12-07T06:21:46;1.30;99.90
18317;DHT22;9284;52.298;21.164;2022-12-07T06:24:16;1.30;99.90
18317;DHT22;9284;52.298;21.164;2022-12-07T06:26:44;1.30;99.90
18317;DHT22;9284;52.298;21.164;2022-12-07T06:29:13;1.30;99.90
18317;DHT22;9284;52.298;21.164;2022-12-07T06:31:41;1.40;99.90
18317;DHT22;9284;52.298;21.164;2022-12-07T06:34:13;1.40;99.90
18317;DHT22;9284;52.298;21.164;2022-12-07T06:36:42;1.50;99.90
18317;DHT22;9284;52.298;21.164;2022-12-07T06:39:10;1.40;99.90
18317;DHT22;9284;52.298;21.164;2022-12-07T06:41:39;1.50;99.90
18317;DHT22;9284;52.298;21.164;2022-12-07T06:44:07;1.40;99.90
18317;DHT22;9284;52.298;21.164;2022-12-07T06:46:35;1.30;99.90
18317;DHT22;9284;52.298;21.164;2022-12-07T06:49:04;1.30;99.90
18317;DHT22;9284;52.298;21.164;2022-12-07T06:51:34;1.20;99.90
18317;DHT22;9284;52.298;21.164;2022-12-07T06:54:03;1.20;99.90
18317;DHT22;9284;52.298;21.164;2022-12-07T06:56:31;1.10;99.90
18317;DHT22;9284;52.298;21.164;2022-12-07T06:59:00;1.20;99.90
18317;DHT22;9284;52.298;21.164;2022-12-07T07:01:28;1.20;99.90
18317;DHT22;9284;52.298;21.164;2022-12-07T07:03:56;1.20;99.90
18317;DHT22;9284;52.298;21.164;2022-12-07T07:06:24;1.30;99.90
18317;DHT22;9284;52.298;21.164;2022-12-07T07:08:54;1.20;99.90
18317;DHT22;9284;52.298;21.164;2022-12-07T07:11:22;1.20;99.90
18317;DHT22;9284;52.298;21.164;2022-12-07T07:13:50;1.20;99.90
18317;DHT22;9284;52.298;21.164;2022-12-07T07:16:19;1.20;99.90
18317;DHT22;9284;52.298;21.164;2022-12-07T07:18:48;1.10;99.90
18317;DHT22;9284;52.298;21.164;2022-12-07T07:21:16;1.10;99.90
18317;DHT22;9284;52.298;21.164;2022-12-07T07:23:44;1.10;99.90
18317;DHT22;9284;52.298;21.164;2022-12-07T07:26:14;1.10;99.90
18317;DHT22;9284;52.298;21.164;2022-12-07T07:28:49;1.10;99.90
18317;DHT22;9284;52.298;21.164;2022-12-07T07:31:17;1.10;99.90
18317;DHT22;9284;52.298;21.164;2022-12-07T07:33:45;1.20;99.90
18317;DHT22;9284;52.298;21.164;2022-12-07T07:36:13;1.30;99.90
18317;DHT22;9284;52.298;21.164;2022-12-07T07:38:42;1.20;99.90
18317;DHT22;9284;52.298;21.164;2022-12-07T07:41:10;1.10;99.90
18317;DHT22;9284;52.298;21.164;2022-12-07T07:43:39;1.10;99.90
18317;DHT22;9284;52.298;21.164;2022-12-07T07:46:08;1.20;99.90
18317;DHT22;9284;52.298;21.164;2022-12-07T07:48:36;1.10;99.90
18317;DHT22;9284;52.298;21.164;2022-12-07T07:51:05;1.20;99.90
18317;DHT22;9284;52.298;21.164;2022-12-07T07:53:34;1.30;99.90
18317;DHT22;9284;52.298;21.164;2022-12-07T07:56:03;1.20;99.90
18317;DHT22;9284;52.298;21.164;2022-12-07T07:58:31;1.30;99.90
18317;DHT22;9284;52.298;21.164;2022-12-07T08:01:05;1.30;99.90
18317;DHT22;9284;52.298;21.164;2022-12-07T08:03:34;1.40;99.90
18317;DHT22;9284;52.298;21.164;2022-12-07T08:06:03;1.40;99.90
18317;DHT22;9284;52.298;21.164;2022-12-07T08:08:31;1.40;99.90
18317;DHT22;9284;52.298;21.164;2022-12-07T08:10:59;1.40;99.90
18317;DHT22;9284;52.298;21.164;2022-12-07T08:13:28;1.40;99.90
18317;DHT22;9284;52.298;21.164;2022-12-07T08:15:57;1.50;99.90
18317;DHT22;9284;52.298;21.164;2022-12-07T08:18:27;1.50;99.90
18317;DHT22;9284;52.298;21.164;2022-12-07T08:20:59;1.50;99.90
18317;DHT22;9284;52.298;21.164;2022-12-07T08:23:27;1.50;99.90
18317;DHT22;9284;52.298;21.164;2022-12-07T08:26:07;1.60;99.90
18317;DHT22;9284;52.298;21.164;2022-12-07T08:28:36;1.60;99.90
18317;DHT22;9284;52.298;21.164;2022-12-07T08:31:06;1.60;99.90
18317;DHT22;9284;52.298;21.164;2022-12-07T08:33:37;1.80;99.90
18317;DHT22;9284;52.298;21.164;2022-12-07T08:36:08;1.70;99.90
18317;DHT22;9284;52.298;21.164;2022-12-07T08:38:38;1.70;99.90
18317;DHT22;9284;52.298;21.164;2022-12-07T08:41:07;1.70;99.90
18317;DHT22;9284;52.298;21.164;2022-12-07T08:43:35;1.80;99.90
18317;DHT22;9284;52.298;21.164;2022-12-07T08:46:07;1.80;99.90
18317;DHT22;9284;52.298;21.164;2022-12-07T08:48:43;1.90;99.90
18317;DHT22;9284;52.298;21.164;2022-12-07T08:51:12;1.80;99.90
18317;DHT22;9284;52.298;21.164;2022-12-07T08:53:41;1.90;99.90
18317;DHT22;9284;52.298;21.164;2022-12-07T08:56:10;1.90;99.90
18317;DHT22;9284;52.298;21.164;2022-12-07T08:58:39;1.90;99.90
18317;DHT22;9284;52.298;21.164;2022-12-07T09:01:07;1.90;99.90
18317;DHT22;9284;52.298;21.164;2022-12-07T09:03:36;1.90;99.90
18317;DHT22;9284;52.298;21.164;2022-12-07T09:06:06;2.00;99.90
18317;DHT22;9284;52.298;21.164;2022-12-07T09:08:40;2.00;99.90
18317;DHT22;9284;52.298;21.164;2022-12-07T09:11:09;2.00;99.90
18317;DHT22;9284;52.298;21.164;2022-12-07T09:13:37;2.00;99.90
18317;DHT22;9284;52.298;21.164;2022-12-07T09:16:05;2.10;99.90
18317;DHT22;9284;52.298;21.164;2022-12-07T09:18:34;2.10;99.90
18317;DHT22;9284;52.298;21.164;2022-12-07T09:21:02;2.20;99.90
18317;DHT22;9284;52.298;21.164;2022-12-07T09:23:32;2.20;99.90
18317;DHT22;9284;52.298;21.164;2022-12-07T09:26:00;2.20;99.90
18317;DHT22;9284;52.298;21.164;2022-12-07T09:28:36;2.30;99.90
18317;DHT22;9284;52.298;21.164;2022-12-07T09:31:05;2.30;99.90
18317;DHT22;9284;52.298;21.164;2022-12-07T09:33:54;2.30;99.90
18317;DHT22;9284;52.298;21.164;2022-12-07T09:36:23;2.30;99.90
18317;DHT22;9284;52.298;21.164;2022-12-07T09:38:52;2.30;99.90
18317;DHT22;9284;52.298;21.164;2022-12-07T09:41:21;2.40;99.90
18317;DHT22;9284;52.298;21.164;2022-12-07T09:43:50;2.40;99.90
18317;DHT22;9284;52.298;21.164;2022-12-07T09:46:20;2.40;99.90
18317;DHT22;9284;52.298;21.164;2022-12-07T09:48:49;2.40;99.90
18317;DHT22;9284;52.298;21.164;2022-12-07T09:51:20;2.40;99.90
18317;DHT22;9284;52.298;21.164;2022-12-07T09:53:54;2.40;99.90
18317;DHT22;9284;52.298;21.164;2022-12-07T09:56:24;2.50;99.90
18317;DHT22;9284;52.298;21.164;2022-12-07T09:58:59;2.50;99.90
18317;DHT22;9284;52.298;21.164;2022-12-07T10:01:29;2.60;99.90
18317;DHT22;9284;52.298;21.164;2022-12-07T10:04:09;2.50;99.90
18317;DHT22;9284;52.298;21.164;2022-12-07T10:06:41;2.50;99.90
18317;DHT22;9284;52.298;21.164;2022-12-07T10:09:12;2.50;99.90
18317;DHT22;9284;52.298;21.164;2022-12-07T10:12:01;2.50;99.90
18317;DHT22;9284;52.298;21.164;2022-12-07T10:14:32;2.50;99.90
18317;DHT22;9284;52.298;21.164;2022-12-07T10:17:33;2.50;99.90
18317;DHT22;9284;52.298;21.164;2022-12-07T10:20:14;2.50;99.90
18317;DHT22;9284;52.298;21.164;2022-12-07T10:22:58;2.60;99.90
18317;DHT22;9284;52.298;21.164;2022-12-07T10:25:31;2.60;99.90
18317;DHT22;9284;52.298;21.164;2022-12-07T10:28:11;2.60;99.90
18317;DHT22;9284;52.298;21.164;2022-12-07T10:30:48;2.60;99.90
18317;DHT22;9284;52.298;21.164;2022-12-07T10:33:29;2.60;99.90
18317;DHT22;9284;52.298;21.164;2022-12-07T10:35:58;2.60;99.90
18317;DHT22;9284;52.298;21.164;2022-12-07T10:38:27;2.70;99.90
18317;DHT22;9284;52.298;21.164;2022-12-07T10:41:07;2.60;99.90
18317;DHT22;9284;52.298;21.164;2022-12-07T10:43:36;2.60;99.90
18317;DHT22;9284;52.298;21.164;2022-12-07T10:46:29;2.60;99.90
18317;DHT22;9284;52.298;21.164;2022-12-07T10:49:07;2.60;99.90
18317;DHT22;9284;52.298;21.164;2022-12-07T10:51:43;2.60;99.90
18317;DHT22;9284;52.298;21.164;2022-12-07T10:54:18;2.60;99.90
18317;DHT22;9284;52.298;21.164;2022-12-07T10:57:07;2.60;99.90
18317;DHT22;9284;52.298;21.164;2022-12-07T10:59:54;2.50;99.90
18317;DHT22;9284;52.298;21.164;2022-12-07T11:02:45;2.50;99.90
18317;DHT22;9284;52.298;21.164;2022-12-07T11:05:21;2.50;99.90
18317;DHT22;9284;52.298;21.164;2022-12-07T11:07:59;2.50;99.90
18317;DHT22;9284;52.298;21.164;2022-12-07T11:10:36;2.60;99.90
18317;DHT22;9284;52.298;21.164;2022-12-07T11:13:22;2.60;99.90
18317;DHT22;9284;52.298;21.164;2022-12-07T11:19:13;2.70;99.90
18317;DHT22;9284;52.298;21.164;2022-12-07T11:21:54;2.60;98.80
18317;DHT22;9284;52.298;21.164;2022-12-07T11:24:30;2.70;99.90
18317;DHT22;9284;52.298;21.164;2022-12-07T11:27:09;2.70;99.90
18317;DHT22;9284;52.298;21.164;2022-12-07T11:29:52;2.80;99.90
18317;DHT22;9284;52.298;21.164;2022-12-07T11:32:37;2.70;43.00
18317;DHT22;9284;52.298;21.164;2022-12-07T11:35:18;2.70;45.40
18317;DHT22;9284;52.298;21.164;2022-12-07T11:37:55;2.70;20.60
18317;DHT22;9284;52.298;21.164;2022-12-07T11:40:28;2.70;1.00
18317;DHT22;9284;52.298;21.164;2022-12-07T11:42:59;2.70;1.00
18317;DHT22;9284;52.298;21.164;2022-12-07T11:45:33;2.60;10.90
18317;DHT22;9284;52.298;21.164;2022-12-07T11:48:04;2.60;1.60
18317;DHT22;9284;52.298;21.164;2022-12-07T11:50:37;2.60;20.50
18317;DHT22;9284;52.298;21.164;2022-12-07T11:53:14;2.60;17.70
18317;DHT22;9284;52.298;21.164;2022-12-07T11:55:51;2.60;18.50
18317;DHT22;9284;52.298;21.164;2022-12-07T11:58:42;2.60;2.80
18317;DHT22;9284;52.298;21.164;2022-12-07T12:01:24;2.70;27.80
18317;DHT22;9284;52.298;21.164;2022-12-07T12:04:01;2.70;1.00
18317;DHT22;9284;52.298;21.164;2022-12-07T12:06:30;2.80;1.00
18317;DHT22;9284;52.298;21.164;2022-12-07T12:09:06;2.80;1.00
18317;DHT22;9284;52.298;21.164;2022-12-07T12:12:30;2.70;1.00
18317;DHT22;9284;52.298;21.164;2022-12-07T12:15:30;2.80;1.00
18317;DHT22;9284;52.298;21.164;2022-12-07T12:18:26;2.80;1.00
18317;DHT22;9284;52.298;21.164;2022-12-07T12:21:02;2.80;1.00
18317;DHT22;9284;52.298;21.164;2022-12-07T12:23:38;3.00;1.00
18317;DHT22;9284;52.298;21.164;2022-12-07T12:26:15;3.00;1.00
18317;DHT22;9284;52.298;21.164;2022-12-07T12:28:52;3.10;1.00
18317;DHT22;9284;52.298;21.164;2022-12-07T12:31:42;3.10;1.00
18317;DHT22;9284;52.298;21.164;2022-12-07T12:34:37;3.00;1.00
18317;DHT22;9284;52.298;21.164;2022-12-07T12:37:40;2.90;1.00
18317;DHT22;9284;52.298;21.164;2022-12-07T12:43:46;2.80;1.00
18317;DHT22;9284;52.298;21.164;2022-12-07T12:46:50;2.70;1.00
18317;DHT22;9284;52.298;21.164;2022-12-07T12:49:38;2.80;1.00
18317;DHT22;9284;52.298;21.164;2022-12-07T12:58:47;2.80;1.00
18317;DHT22;9284;52.298;21.164;2022-12-07T13:01:41;2.80;1.00
18317;DHT22;9284;52.298;21.164;2022-12-07T13:04:30;2.70;1.00
18317;DHT22;9284;52.298;21.164;2022-12-07T13:07:12;2.70;1.00
18317;DHT22;9284;52.298;21.164;2022-12-07T13:09:44;2.70;1.00
18317;DHT22;9284;52.298;21.164;2022-12-07T13:12:15;2.70;1.00
18317;DHT22;9284;52.298;21.164;2022-12-07T13:14:54;2.70;1.00
18317;DHT22;9284;52.298;21.164;2022-12-07T13:17:55;2.80;1.00
18317;DHT22;9284;52.298;21.164;2022-12-07T13:20:46;2.70;1.00
18317;DHT22;9284;52.298;21.164;2022-12-07T13:23:20;2.70;22.90
18317;DHT22;9284;52.298;21.164;2022-12-07T13:25:54;2.70;2.80
18317;DHT22;9284;52.298;21.164;2022-12-07T13:28:26;2.60;1.00
18317;DHT22;9284;52.298;21.164;2022-12-07T13:31:12;2.60;1.00
18317;DHT22;9284;52.298;21.164;2022-12-07T13:33:43;2.60;1.00
18317;DHT22;9284;52.298;21.164;2022-12-07T13:36:21;2.60;1.00
18317;DHT22;9284;52.298;21.164;2022-12-07T13:39:17;2.60;1.00
18317;DHT22;9284;52.298;21.164;2022-12-07T13:41:50;2.50;1.00
18317;DHT22;9284;52.298;21.164;2022-12-07T13:44:19;2.50;1.00
18317;DHT22;9284;52.298;21.164;2022-12-07T13:46:59;2.50;1.00
18317;DHT22;9284;52.298;21.164;2022-12-07T13:49:30;2.40;1.00
18317;DHT22;9284;52.298;21.164;2022-12-07T13:52:14;2.40;1.00
18317;DHT22;9284;52.298;21.164;2022-12-07T13:54:47;2.40;1.00
18317;DHT22;9284;52.298;21.164;2022-12-07T13:57:15;2.40;1.00
18317;DHT22;9284;52.298;21.164;2022-12-07T13:59:44;2.30;1.00
18317;DHT22;9284;52.298;21.164;2022-12-07T14:02:21;2.30;1.00
18317;DHT22;9284;52.298;21.164;2022-12-07T14:04:51;2.30;1.00
18317;DHT22;9284;52.298;21.164;2022-12-07T14:07:22;2.40;1.00
18317;DHT22;9284;52.298;21.164;2022-12-07T14:09:57;2.30;1.00
18317;DHT22;9284;52.298;21.164;2022-12-07T14:12:27;2.30;1.00
18317;DHT22;9284;52.298;21.164;2022-12-07T14:14:56;2.30;2.40
18317;DHT22;9284;52.298;21.164;2022-12-07T14:17:27;2.20;4.20
18317;DHT22;9284;52.298;21.164;2022-12-07T14:19:56;2.30;9.40
18317;DHT22;9284;52.298;21.164;2022-12-07T14:22:27;2.30;21.70
18317;DHT22;9284;52.298;21.164;2022-12-07T14:25:17;2.30;43.40
18317;DHT22;9284;52.298;21.164;2022-12-07T14:27:51;2.20;69.90
18317;DHT22;9284;52.298;21.164;2022-12-07T14:30:24;2.20;88.60
18317;DHT22;9284;52.298;21.164;2022-12-07T14:32:54;2.20;91.60
18317;DHT22;9284;52.298;21.164;2022-12-07T14:35:25;2.20;76.20
18317;DHT22;9284;52.298;21.164;2022-12-07T14:37:53;2.10;92.20
18317;DHT22;9284;52.298;21.164;2022-12-07T14:40:26;2.10;84.70
18317;DHT22;9284;52.298;21.164;2022-12-07T14:42:57;2.10;92.30
18317;DHT22;9284;52.298;21.164;2022-12-07T14:45:28;2.10;99.90
18317;DHT22;9284;52.298;21.164;2022-12-07T14:47:57;2.10;94.50
18317;DHT22;9284;52.298;21.164;2022-12-07T14:50:49;2.10;99.90
18317;DHT22;9284;52.298;21.164;2022-12-07T14:53:40;2.10;99.90
18317;DHT22;9284;52.298;21.164;2022-12-07T14:56:10;2.00;99.90
18317;DHT22;9284;52.298;21.164;2022-12-07T14:58:39;2.10;99.90
18317;DHT22;9284;52.298;21.164;2022-12-07T15:01:07;2.00;99.90
18317;DHT22;9284;52.298;21.164;2022-12-07T15:03:36;2.00;99.90
18317;DHT22;9284;52.298;21.164;2022-12-07T15:06:06;2.00;99.90
18317;DHT22;9284;52.298;21.164;2022-12-07T15:08:34;1.90;99.90
18317;DHT22;9284;52.298;21.164;2022-12-07T15:11:02;1.90;99.90
18317;DHT22;9284;52.298;21.164;2022-12-07T15:13:32;1.90;99.90
18317;DHT22;9284;52.298;21.164;2022-12-07T15:16:20;1.90;99.90
18317;DHT22;9284;52.298;21.164;2022-12-07T15:18:48;1.70;99.90
18317;DHT22;9284;52.298;21.164;2022-12-07T15:21:37;1.70;99.90
18317;DHT22;9284;52.298;21.164;2022-12-07T15:24:05;1.60;99.90
18317;DHT22;9284;52.298;21.164;2022-12-07T15:26:34;1.60;99.90
18317;DHT22;9284;52.298;21.164;2022-12-07T15:29:03;1.50;99.90
18317;DHT22;9284;52.298;21.164;2022-12-07T15:31:32;1.50;99.90
18317;DHT22;9284;52.298;21.164;2022-12-07T15:34:21;1.50;99.90
18317;DHT22;9284;52.298;21.164;2022-12-07T15:36:50;1.50;99.90
18317;DHT22;9284;52.298;21.164;2022-12-07T15:39:18;1.50;99.90
18317;DHT22;9284;52.298;21.164;2022-12-07T15:41:46;1.50;99.90
18317;DHT22;9284;52.298;21.164;2022-12-07T15:44:16;1.40;99.90
18317;DHT22;9284;52.298;21.164;2022-12-07T15:47:02;1.50;99.90
18317;DHT22;9284;52.298;21.164;2022-12-07T15:49:31;1.50;99.90
18317;DHT22;9284;52.298;21.164;2022-12-07T15:52:00;1.50;99.90
18317;DHT22;9284;52.298;21.164;2022-12-07T15:54:29;1.50;99.90
18317;DHT22;9284;52.298;21.164;2022-12-07T15:56:57;1.50;99.90
18317;DHT22;9284;52.298;21.164;2022-12-07T15:59:27;1.50;99.90
18317;DHT22;9284;52.298;21.164;2022-12-07T16:01:56;1.50;99.90
18317;DHT22;9284;52.298;21.164;2022-12-07T16:04:26;1.50;99.90
18317;DHT22;9284;52.298;21.164;2022-12-07T16:06:55;1.60;99.90
18317;DHT22;9284;52.298;21.164;2022-12-07T16:09:23;1.60;99.90
18317;DHT22;9284;52.298;21.164;2022-12-07T16:11:52;1.60;99.90
18317;DHT22;9284;52.298;21.164;2022-12-07T16:14:20;1.70;99.90
18317;DHT22;9284;52.298;21.164;2022-12-07T16:16:50;1.60;99.90
18317;DHT22;9284;52.298;21.164;2022-12-07T16:19:18;1.70;99.90
18317;DHT22;9284;52.298;21.164;2022-12-07T16:21:47;1.70;99.90
18317;DHT22;9284;52.298;21.164;2022-12-07T16:24:15;1.70;99.90
18317;DHT22;9284;52.298;21.164;2022-12-07T16:26:43;1.60;99.90
18317;DHT22;9284;52.298;21.164;2022-12-07T16:29:17;1.70;99.90
18317;DHT22;9284;52.298;21.164;2022-12-07T16:31:46;1.70;99.90
18317;DHT22;9284;52.298;21.164;2022-12-07T16:34:16;1.70;99.90
18317;DHT22;9284;52.298;21.164;2022-12-07T16:36:44;1.80;99.90
18317;DHT22;9284;52.298;21.164;2022-12-07T16:39:31;1.80;99.90
18317;DHT22;9284;52.298;21.164;2022-12-07T16:41:59;1.80;99.90
18317;DHT22;9284;52.298;21.164;2022-12-07T16:44:27;1.90;99.90
18317;DHT22;9284;52.298;21.164;2022-12-07T16:46:57;1.80;99.90
18317;DHT22;9284;52.298;21.164;2022-12-07T16:49:27;1.80;99.90
18317;DHT22;9284;52.298;21.164;2022-12-07T16:51:55;1.80;99.90
18317;DHT22;9284;52.298;21.164;2022-12-07T16:54:44;1.80;99.90
18317;DHT22;9284;52.298;21.164;2022-12-07T16:57:12;1.90;99.90
18317;DHT22;9284;52.298;21.164;2022-12-07T16:59:48;1.90;99.90
18317;DHT22;9284;52.298;21.164;2022-12-07T17:02:16;1.90;99.90
18317;DHT22;9284;52.298;21.164;2022-12-07T17:04:45;1.90;99.90
18317;DHT22;9284;52.298;21.164;2022-12-07T17:07:14;2.00;99.90
18317;DHT22;9284;52.298;21.164;2022-12-07T17:09:42;1.90;99.90
18317;DHT22;9284;52.298;21.164;2022-12-07T17:12:10;2.00;99.90
18317;DHT22;9284;52.298;21.164;2022-12-07T17:14:39;2.00;99.90
18317;DHT22;9284;52.298;21.164;2022-12-07T17:17:24;2.00;99.90
18317;DHT22;9284;52.298;21.164;2022-12-07T17:19:54;2.00;99.90
18317;DHT22;9284;52.298;21.164;2022-12-07T17:22:22;2.00;99.90
18317;DHT22;9284;52.298;21.164;2022-12-07T17:24:50;2.00;99.90
18317;DHT22;9284;52.298;21.164;2022-12-07T17:27:19;2.00;99.90
18317;DHT22;9284;52.298;21.164;2022-12-07T17:29:47;2.00;99.90
18317;DHT22;9284;52.298;21.164;2022-12-07T17:32:15;2.00;99.90
18317;DHT22;9284;52.298;21.164;2022-12-07T17:34:44;2.00;99.90
18317;DHT22;9284;52.298;21.164;2022-12-07T17:37:13;2.00;99.90
18317;DHT22;9284;52.298;21.164;2022-12-07T17:39:41;2.00;99.90
18317;DHT22;9284;52.298;21.164;2022-12-07T17:42:10;2.00;99.90
18317;DHT22;9284;52.298;21.164;2022-12-07T17:44:55;2.10;99.90
18317;DHT22;9284;52.298;21.164;2022-12-07T17:47:23;2.10;99.90
18317;DHT22;9284;52.298;21.164;2022-12-07T17:49:52;2.10;99.90
18317;DHT22;9284;52.298;21.164;2022-12-07T17:52:22;2.10;99.90
18317;DHT22;9284;52.298;21.164;2022-12-07T17:55:08;2.10;99.90
18317;DHT22;9284;52.298;21.164;2022-12-07T17:57:36;2.10;99.90
18317;DHT22;9284;52.298;21.164;2022-12-07T18:00:05;2.10;99.90
18317;DHT22;9284;52.298;21.164;2022-12-07T18:02:37;2.10;99.90
18317;DHT22;9284;52.298;21.164;2022-12-07T18:05:07;2.10;99.90
18317;DHT22;9284;52.298;21.164;2022-12-07T18:07:37;2.00;99.90
18317;DHT22;9284;52.298;21.164;2022-12-07T18:10:06;2.00;99.90
18317;DHT22;9284;52.298;21.164;2022-12-07T18:12:35;2.00;99.90
18317;DHT22;9284;52.298;21.164;2022-12-07T18:15:04;1.90;99.90
18317;DHT22;9284;52.298;21.164;2022-12-07T18:17:32;1.90;99.90
18317;DHT22;9284;52.298;21.164;2022-12-07T18:20:01;1.90;99.90
18317;DHT22;9284;52.298;21.164;2022-12-07T18:22:29;1.90;99.90
18317;DHT22;9284;52.298;21.164;2022-12-07T18:24:58;1.90;99.90
18317;DHT22;9284;52.298;21.164;2022-12-07T18:27:27;1.90;99.90
18317;DHT22;9284;52.298;21.164;2022-12-07T18:29:55;1.90;99.90
18317;DHT22;9284;52.298;21.164;2022-12-07T18:32:25;1.80;99.90
18317;DHT22;9284;52.298;21.164;2022-12-07T18:34:56;1.80;99.90
18317;DHT22;9284;52.298;21.164;2022-12-07T18:37:25;1.70;99.90
18317;DHT22;9284;52.298;21.164;2022-12-07T18:39:54;1.70;99.90
18317;DHT22;9284;52.298;21.164;2022-12-07T18:42:25;1.60;99.90
18317;DHT22;9284;52.298;21.164;2022-12-07T18:44:53;1.60;99.90
18317;DHT22;9284;52.298;21.164;2022-12-07T18:47:21;1.60;99.90
18317;DHT22;9284;52.298;21.164;2022-12-07T18:49:49;1.60;99.90
18317;DHT22;9284;52.298;21.164;2022-12-07T18:52:18;1.60;99.90
18317;DHT22;9284;52.298;21.164;2022-12-07T18:54:46;1.50;99.90
18317;DHT22;9284;52.298;21.164;2022-12-07T18:57:14;1.50;99.90
18317;DHT22;9284;52.298;21.164;2022-12-07T18:59:44;1.50;99.90
18317;DHT22;9284;52.298;21.164;2022-12-07T19:02:16;1.50;99.90
18317;DHT22;9284;52.298;21.164;2022-12-07T19:04:46;1.60;99.90
18317;DHT22;9284;52.298;21.164;2022-12-07T19:07:14;1.50;99.90
18317;DHT22;9284;52.298;21.164;2022-12-07T19:09:43;1.50;99.90
18317;DHT22;9284;52.298;21.164;2022-12-07T19:12:12;1.50;99.90
18317;DHT22;9284;52.298;21.164;2022-12-07T19:14:40;1.50;99.90
18317;DHT22;9284;52.298;21.164;2022-12-07T19:17:12;1.50;99.90
18317;DHT22;9284;52.298;21.164;2022-12-07T19:19:42;1.50;99.90
18317;DHT22;9284;52.298;21.164;2022-12-07T19:22:11;1.50;99.90
18317;DHT22;9284;52.298;21.164;2022-12-07T19:24:40;1.50;99.90
18317;DHT22;9284;52.298;21.164;2022-12-07T19:27:10;1.50;99.90
18317;DHT22;9284;52.298;21.164;2022-12-07T19:29:38;1.50;99.90
18317;DHT22;9284;52.298;21.164;2022-12-07T19:32:07;1.50;99.90
18317;DHT22;9284;52.298;21.164;2022-12-07T19:34:38;1.60;99.90
18317;DHT22;9284;52.298;21.164;2022-12-07T19:37:07;1.60;99.90
18317;DHT22;9284;52.298;21.164;2022-12-07T19:39:35;1.60;99.90
18317;DHT22;9284;52.298;21.164;2022-12-07T19:42:04;1.50;99.90
18317;DHT22;9284;52.298;21.164;2022-12-07T19:44:32;1.60;99.90
18317;DHT22;9284;52.298;21.164;2022-12-07T19:47:02;1.60;99.90
18317;DHT22;9284;52.298;21.164;2022-12-07T19:49:33;1.60;99.90
18317;DHT22;9284;52.298;21.164;2022-12-07T19:52:04;1.60;99.90
18317;DHT22;9284;52.298;21.164;2022-12-07T19:54:34;1.60;99.90
18317;DHT22;9284;52.298;21.164;2022-12-07T19:57:03;1.50;99.90
18317;DHT22;9284;52.298;21.164;2022-12-07T19:59:33;1.40;99.90
18317;DHT22;9284;52.298;21.164;2022-12-07T20:02:01;1.50;99.90
18317;DHT22;9284;52.298;21.164;2022-12-07T20:04:32;1.40;99.90
18317;DHT22;9284;52.298;21.164;2022-12-07T20:07:03;1.40;99.90
18317;DHT22;9284;52.298;21.164;2022-12-07T20:09:31;1.40;99.90
18317;DHT22;9284;52.298;21.164;2022-12-07T20:11:59;1.40;99.90
18317;DHT22;9284;52.298;21.164;2022-12-07T20:14:45;1.40;99.90
18317;DHT22;9284;52.298;21.164;2022-12-07T20:17:13;1.30;99.90
18317;DHT22;9284;52.298;21.164;2022-12-07T20:19:42;1.30;99.90
18317;DHT22;9284;52.298;21.164;2022-12-07T20:22:11;1.40;99.90
18317;DHT22;9284;52.298;21.164;2022-12-07T20:24:39;1.40;99.90
18317;DHT22;9284;52.298;21.164;2022-12-07T20:27:08;1.40;99.90
18317;DHT22;9284;52.298;21.164;2022-12-07T20:29:36;1.40;99.90
18317;DHT22;9284;52.298;21.164;2022-12-07T20:32:04;1.30;50.60
18317;DHT22;9284;52.298;21.164;2022-12-07T20:34:32;1.30;1.00
18317;DHT22;9284;52.298;21.164;2022-12-07T20:37:01;1.20;1.00
18317;DHT22;9284;52.298;21.164;2022-12-07T20:39:30;1.20;1.00
18317;DHT22;9284;52.298;21.164;2022-12-07T20:41:59;1.20;1.00